createdAt,value
2022-10-11T00:04:42.866Z,9.36
2022-10-11T00:11:00.155Z,8.90
2022-10-11T00:17:03.661Z,8.91
2022-10-11T00:23:05.647Z,8.89
2022-10-11T00:29:08.448Z,9.06
2022-10-11T00:35:10.538Z,9.05
2022-10-11T00:41:19.753Z,8.90
2022-10-11T00:47:24.620Z,8.68
2022-10-11T00:53:30.433Z,8.56
2022-10-11T00:59:56.076Z,8.23
2022-10-11T01:06:03.676Z,8.41
2022-10-11T01:20:17.446Z,8.66
2022-10-11T01:26:53.867Z,8.53
2022-10-11T01:33:35.358Z,8.59
2022-10-11T01:39:51.930Z,8.58
2022-10-11T01:45:58.775Z,8.62
2022-10-11T01:52:09.583Z,8.36
2022-10-11T01:58:26.433Z,8.21
2022-10-11T02:04:48.054Z,7.85
2022-10-11T02:11:29.902Z,7.59
2022-10-11T02:17:37.729Z,7.49
2022-10-11T02:23:54.180Z,7.47
2022-10-11T02:29:59.919Z,7.34
2022-10-11T02:36:18.001Z,7.53
2022-10-11T02:42:30.667Z,7.58
2022-10-11T02:48:35.520Z,7.78
2022-10-11T02:54:37.370Z,7.78
2022-10-11T03:00:39.272Z,7.80
2022-10-11T03:06:41.219Z,7.87
2022-10-11T03:12:43.114Z,7.72
2022-10-11T03:18:45.034Z,7.69
2022-10-11T03:24:47.061Z,7.52
2022-10-11T03:30:50.265Z,7.46
2022-10-11T03:36:52.220Z,7.41
2022-10-11T03:42:56.311Z,7.44
2022-10-11T03:48:58.303Z,7.16
2022-10-11T03:55:00.181Z,6.83
2022-10-11T04:01:11.042Z,6.83
2022-10-11T04:07:13.771Z,6.63
2022-10-11T04:13:16.229Z,6.44
2022-10-11T04:19:18.301Z,6.59
2022-10-11T04:25:20.302Z,6.46
2022-10-11T04:31:22.600Z,6.46
2022-10-11T04:37:26.145Z,6.27
2022-10-11T04:43:28.043Z,6.25
2022-10-11T04:49:30.825Z,6.19
2022-10-11T04:55:32.865Z,6.22
2022-10-11T05:01:35.335Z,6.22
2022-10-11T05:07:42.234Z,6.34
2022-10-11T05:13:45.879Z,6.47
2022-10-11T05:19:47.871Z,6.46
2022-10-11T05:25:49.737Z,6.61
2022-10-11T05:31:51.596Z,6.51
2022-10-11T05:44:17.002Z,6.18
2022-10-11T05:50:24.451Z,5.95
2022-10-11T05:56:28.957Z,5.87
2022-10-11T06:02:30.856Z,6.06
2022-10-11T06:08:33.689Z,5.93
2022-10-11T06:14:36.148Z,5.94
2022-10-11T06:20:38.046Z,6.19
2022-10-11T06:26:40.369Z,6.45
2022-10-11T06:32:42.392Z,6.78
2022-10-11T06:38:45.328Z,7.07
2022-10-11T06:45:01.023Z,7.45
2022-10-11T06:51:03.874Z,7.58
2022-10-11T06:57:05.813Z,7.71
2022-10-11T07:03:08.800Z,7.71
2022-10-11T07:09:11.038Z,7.84
2022-10-11T07:15:13.022Z,7.96
2022-10-11T07:21:16.180Z,8.41
2022-10-11T07:27:18.032Z,8.32
2022-10-11T07:33:19.957Z,8.76
2022-10-11T07:39:22.052Z,9.18
2022-10-11T07:45:28.656Z,9.40
2022-10-11T07:51:30.545Z,9.66
2022-10-11T07:57:33.349Z,10.21
2022-10-11T08:03:35.557Z,10.37
2022-10-11T08:09:37.474Z,10.60
2022-10-11T08:15:39.352Z,11.20
2022-10-11T08:21:42.347Z,11.43
2022-10-11T08:27:44.280Z,12.09
2022-10-11T08:33:46.264Z,12.46
2022-10-11T08:39:59.222Z,12.47
2022-10-11T08:46:04.763Z,12.45
2022-10-11T08:52:27.523Z,12.54
2022-10-11T08:58:45.734Z,13.02
2022-10-11T09:04:52.766Z,13.08
2022-10-11T09:17:58.476Z,13.43
2022-10-11T09:24:05.926Z,13.51
2022-10-11T09:30:18.562Z,13.35
2022-10-11T09:36:37.415Z,13.70
2022-10-11T09:42:39.316Z,14.11
2022-10-11T09:48:41.936Z,14.22
2022-10-11T09:55:00.583Z,14.41
2022-10-11T10:01:13.730Z,14.51
2022-10-11T10:07:16.239Z,14.33
2022-10-11T10:20:07.132Z,14.44
2022-10-11T10:26:22.565Z,14.82
2022-10-11T10:32:38.031Z,15.07
2022-10-11T10:39:13.110Z,15.57
2022-10-11T10:45:21.560Z,15.95
2022-10-11T10:52:03.031Z,17.12
2022-10-11T10:58:30.160Z,17.66
2022-10-11T11:04:34.214Z,19.18
2022-10-11T11:11:04.366Z,19.91
2022-10-11T11:17:28.256Z,18.70
2022-10-11T11:24:26.745Z,18.51
2022-10-11T11:30:46.575Z,18.67
2022-10-11T11:37:06.715Z,20.19
2022-10-11T11:43:38.201Z,20.34
2022-10-11T11:49:55.841Z,21.14
2022-10-11T11:56:10.198Z,21.56
2022-10-11T12:09:22.764Z,22.72
2022-10-11T12:15:26.985Z,24.62
2022-10-11T12:21:37.715Z,25.46
2022-10-11T12:27:53.270Z,24.19
2022-10-11T12:34:20.035Z,24.14
2022-10-11T12:40:45.815Z,25.03
2022-10-11T12:46:50.770Z,23.88
2022-10-11T12:53:19.969Z,24.41
2022-10-11T12:59:24.517Z,23.68
2022-10-11T13:05:47.737Z,24.65
2022-10-11T13:12:38.826Z,26.42
2022-10-11T13:18:47.664Z,24.46
2022-10-11T13:24:49.643Z,23.78
2022-10-11T13:30:58.432Z,22.85
2022-10-11T13:37:00.468Z,23.07
2022-10-11T13:43:05.358Z,24.78
2022-10-11T13:49:44.486Z,26.66
2022-10-11T13:56:00.588Z,27.47
2022-10-11T14:02:13.495Z,28.79
2022-10-11T14:08:58.519Z,27.47
2022-10-11T14:15:06.028Z,26.34
2022-10-11T14:21:33.596Z,25.87
2022-10-11T14:27:37.429Z,27.11
2022-10-11T14:33:39.799Z,27.60
2022-10-11T14:39:42.572Z,27.65
2022-10-11T14:45:44.503Z,25.75
2022-10-11T14:51:48.918Z,23.40
2022-10-11T14:57:50.873Z,21.74
2022-10-11T15:03:52.931Z,20.72
2022-10-11T15:17:37.269Z,18.53
2022-10-11T15:23:39.355Z,17.98
2022-10-11T15:29:41.261Z,18.13
2022-10-11T15:35:43.275Z,19.31
2022-10-11T15:41:45.157Z,21.37
2022-10-11T15:47:47.939Z,22.23
2022-10-11T15:53:49.945Z,22.45
2022-10-11T15:59:51.959Z,22.35
2022-10-11T16:05:55.493Z,20.89
2022-10-11T16:11:57.598Z,18.19
2022-10-11T16:18:00.669Z,16.67
2022-10-11T16:24:02.639Z,14.51
2022-10-11T16:30:05.064Z,13.46
2022-10-11T16:36:27.285Z,12.68
2022-10-11T16:42:29.255Z,12.06
2022-10-11T16:48:31.208Z,11.70
2022-10-11T16:54:33.172Z,11.35
2022-10-11T17:00:35.325Z,11.02
2022-10-11T17:06:37.848Z,10.72
2022-10-11T17:12:39.829Z,10.41
2022-10-11T17:18:42.378Z,10.37
2022-10-11T17:24:44.825Z,10.19
2022-10-11T17:30:56.003Z,9.92
2022-10-11T17:37:01.252Z,9.90
2022-10-11T17:43:03.206Z,9.92
2022-10-11T17:49:07.891Z,9.83
2022-10-11T17:55:10.024Z,9.82
2022-10-11T18:01:17.094Z,9.77
2022-10-11T18:07:19.206Z,9.70
2022-10-11T18:13:21.279Z,9.56
2022-10-11T18:19:27.920Z,9.51
2022-10-11T18:25:33.396Z,9.39
2022-10-11T18:31:38.791Z,9.33
2022-10-11T18:37:40.695Z,9.21
2022-10-11T18:43:42.992Z,9.14
2022-10-11T18:49:44.886Z,9.04
2022-10-11T18:56:06.312Z,8.90
2022-10-11T19:02:12.153Z,8.88
2022-10-11T19:08:14.072Z,8.80
2022-10-11T19:14:19.816Z,8.61
2022-10-11T19:20:22.558Z,8.45
2022-10-11T19:33:16.858Z,7.90
2022-10-11T19:39:20.603Z,7.97
2022-10-11T19:45:22.842Z,7.76
2022-10-11T19:51:27.811Z,7.61
2022-10-11T19:57:30.948Z,7.52
2022-10-11T20:03:34.105Z,7.32
2022-10-11T20:09:36.639Z,7.19
2022-10-11T20:15:38.904Z,7.23
2022-10-11T20:21:43.213Z,7.22
2022-10-11T20:27:46.464Z,7.26
2022-10-11T20:33:49.247Z,7.31
2022-10-11T20:39:51.181Z,7.38
2022-10-11T20:46:08.984Z,7.22
2022-10-11T20:52:11.063Z,7.11
2022-10-11T20:58:15.306Z,6.91
2022-10-11T21:04:20.493Z,6.58
2022-10-11T21:10:22.349Z,6.39
2022-10-11T21:16:26.282Z,6.29
2022-10-11T21:22:28.130Z,6.26
2022-10-11T21:28:30.230Z,6.16
2022-10-11T21:34:32.132Z,6.16
2022-10-11T21:40:37.834Z,6.05
2022-10-11T21:47:05.658Z,6.12
2022-10-11T21:53:01.590Z,5.99
2022-10-11T21:59:06.604Z,5.93
2022-10-11T22:05:11.494Z,5.89
2022-10-11T22:11:13.503Z,6.04
2022-10-11T22:17:15.407Z,6.05
2022-10-11T22:23:18.932Z,6.04
2022-10-11T22:29:21.115Z,6.03
2022-10-11T22:35:23.266Z,5.84
2022-10-11T22:41:26.002Z,5.76
2022-10-11T22:47:27.941Z,5.79
2022-10-11T22:53:30.627Z,5.82
2022-10-11T22:59:32.852Z,5.82
2022-10-11T23:05:35.462Z,5.64
2022-10-11T23:11:37.317Z,5.56
2022-10-11T23:17:41.152Z,5.42
2022-10-11T23:23:45.984Z,5.31
2022-10-11T23:29:47.840Z,5.22
2022-10-11T23:35:49.962Z,5.17
2022-10-11T23:41:51.829Z,5.12
2022-10-11T23:47:53.715Z,5.08
2022-10-11T23:53:55.651Z,4.97
2022-10-11T23:59:57.519Z,4.86
